Time;durP1;ratioP1;P1;durP2;ratioP2;P2;SDS_P1;SDS_P2;PMS_P1;PMS_P2;Temp;Humidity;BMP_temperature;BMP_pressure;BME280_temperature;BME280_humidity;BME280_pressure;Samples;Min_cycle;Max_cycle;Signal;HPM_P1;HPM_P2
2024/05/02 00:01:01;;;;;;;10.13;3.05;;;15.90;71.00;19.90;100219.00;;;;5452443;26;20007;-58
2024/05/02 00:03:27;;;;;;;12.45;2.70;;;15.90;70.70;19.80;100218.00;;;;5437495;26;20000;-50
2024/05/02 00:05:54;;;;;;;5.78;2.90;;;15.80;70.90;19.70;100219.00;;;;5455799;26;20010;-47
2024/05/02 00:08:20;;;;;;;4.30;2.92;;;15.80;71.20;19.70;100225.00;;;;5466558;26;20063;-52
2024/05/02 00:10:46;;;;;;;7.43;2.95;;;15.80;71.30;19.70;100217.00;;;;5453769;26;20003;-50
2024/05/02 00:13:12;;;;;;;5.95;2.90;;;15.70;71.40;19.70;100222.00;;;;5443499;26;20010;-53
2024/05/02 00:15:39;;;;;;;7.75;2.95;;;15.80;71.60;19.50;100215.00;;;;5443321;26;20039;-50
2024/05/02 00:18:05;;;;;;;5.50;3.10;;;15.70;71.80;19.70;100225.00;;;;5463404;26;20000;-51
2024/05/02 00:20:31;;;;;;;4.20;3.00;;;15.70;71.80;19.80;100215.00;;;;5454443;26;19994;-49
2024/05/02 00:22:57;;;;;;;10.27;3.28;;;15.60;71.90;19.70;100216.00;;;;5436328;26;20013;-49
2024/05/02 00:25:24;;;;;;;8.23;3.00;;;15.60;72.00;19.60;100206.00;;;;5445298;26;20332;-49
2024/05/02 00:27:50;;;;;;;5.97;3.33;;;15.50;72.10;19.60;100209.00;;;;5444533;26;20449;-50
2024/05/02 00:30:16;;;;;;;9.43;2.97;;;15.50;72.20;19.50;100202.00;;;;5454422;26;20016;-49
2024/05/02 00:32:42;;;;;;;8.93;3.22;;;15.50;72.30;19.50;100211.00;;;;5429887;26;20022;-47
2024/05/02 00:35:09;;;;;;;7.25;3.15;;;15.50;72.40;19.30;100209.00;;;;5423796;26;20324;-51
2024/05/02 00:37:35;;;;;;;10.85;3.47;;;15.50;72.50;19.30;100207.00;;;;5457277;26;20412;-48
2024/05/02 00:40:01;;;;;;;6.13;2.95;;;15.40;72.40;19.30;100196.00;;;;5442891;26;20008;-50
2024/05/02 00:42:28;;;;;;;10.50;3.25;;;15.40;72.70;19.50;100202.00;;;;5457333;26;19999;-48
2024/05/02 00:44:54;;;;;;;15.85;3.10;;;15.40;72.80;19.50;100196.00;;;;5457921;26;20038;-48
2024/05/02 00:47:20;;;;;;;7.45;2.90;;;15.30;73.20;19.40;100198.00;;;;5473037;26;20013;-49
2024/05/02 00:49:47;;;;;;;9.32;3.25;;;15.30;73.30;19.10;100194.00;;;;5471462;26;20122;-48
2024/05/02 00:52:15;;;;;;;7.30;3.33;;;15.30;73.30;19.40;100194.00;;;;5479081;26;19997;-49
2024/05/02 00:54:41;;;;;;;6.97;3.17;;;15.20;73.70;19.40;100197.00;;;;5433399;26;19999;-53
2024/05/02 00:57:08;;;;;;;5.22;2.70;;;15.20;73.50;19.30;100194.00;;;;5459664;26;19998;-53
2024/05/02 00:59:34;;;;;;;11.82;2.70;;;15.20;73.70;19.00;100198.00;;;;5459473;26;20007;-51
2024/05/02 01:02:00;;;;;;;6.03;2.70;;;15.20;73.40;19.20;100196.00;;;;5450694;26;19999;-52
2024/05/02 01:04:26;;;;;;;6.78;2.60;;;15.20;73.70;19.10;100196.00;;;;5467321;26;20014;-50
2024/05/02 01:06:53;;;;;;;7.05;2.80;;;15.10;73.60;19.20;100198.00;;;;5451680;26;19999;-48
2024/05/02 01:09:21;;;;;;;9.48;3.20;;;15.10;73.90;19.20;100195.00;;;;5446979;26;20021;-47
2024/05/02 01:11:51;;;;;;;9.60;2.95;;;15.10;73.90;18.90;100192.00;;;;5463675;26;20002;-48
2024/05/02 01:14:17;;;;;;;11.38;3.70;;;15.00;74.20;19.00;100197.00;;;;5433594;26;20079;-48
2024/05/02 01:16:43;;;;;;;11.15;2.75;;;15.00;74.50;19.10;100181.00;;;;5459393;26;20007;-49
2024/05/02 01:19:10;;;;;;;6.85;3.05;;;15.00;74.30;18.80;100186.00;;;;5458381;26;20325;-49
2024/05/02 01:21:36;;;;;;;8.48;3.53;;;15.00;74.50;19.00;100188.00;;;;5453718;26;20499;-50
2024/05/02 01:24:03;;;;;;;6.00;2.75;;;14.90;75.20;19.10;100188.00;;;;5450317;26;20035;-49
2024/05/02 01:26:29;;;;;;;10.20;3.25;;;14.80;75.20;18.90;100188.00;;;;5455375;26;20005;-52
2024/05/02 01:28:55;;;;;;;8.27;2.60;;;14.80;75.30;18.80;100189.00;;;;5455923;26;19995;-48
2024/05/02 01:31:21;;;;;;;8.25;2.70;;;14.80;75.70;18.80;100182.00;;;;5457230;26;20006;-48
2024/05/02 01:33:47;;;;;;;13.55;3.20;;;14.80;75.70;18.80;100187.00;;;;5455339;26;20321;-53
2024/05/02 01:36:13;;;;;;;7.90;3.05;;;14.80;75.60;18.70;100192.00;;;;5457177;26;19995;-48
2024/05/02 01:38:39;;;;;;;4.18;2.70;;;14.70;75.60;18.90;100192.00;;;;5456520;26;20007;-49
2024/05/02 01:41:05;;;;;;;8.60;3.28;;;14.70;75.90;18.70;100193.00;;;;5452757;26;19999;-49
2024/05/02 01:43:31;;;;;;;6.75;2.90;;;14.70;75.70;18.50;100187.00;;;;5458946;26;20381;-50
2024/05/02 01:45:57;;;;;;;11.02;2.95;;;14.70;76.00;18.40;100194.00;;;;5459277;26;19999;-52
2024/05/02 01:48:23;;;;;;;7.82;3.10;;;14.60;76.10;18.70;100190.00;;;;5453545;26;20010;-56
2024/05/02 01:50:49;;;;;;;11.30;2.53;;;14.60;76.80;18.90;100183.00;;;;5446893;26;20014;-49
2024/05/02 01:53:16;;;;;;;7.18;3.53;;;14.60;76.50;18.50;100182.00;;;;5458050;26;19998;-49
2024/05/02 01:55:42;;;;;;;5.35;3.05;;;14.60;76.50;18.70;100179.00;;;;5449793;26;20084;-50
2024/05/02 01:58:09;;;;;;;9.05;3.65;;;14.60;76.60;18.30;100177.00;;;;5442736;26;20014;-52
2024/05/02 02:00:35;;;;;;;5.38;2.75;;;14.50;76.80;18.60;100172.00;;;;5456622;26;20002;-48
2024/05/02 02:03:01;;;;;;;10.13;2.90;;;14.50;77.20;18.60;100167.00;;;;5452648;26;20043;-49
2024/05/02 02:05:27;;;;;;;10.45;3.80;;;14.40;77.40;18.50;100182.00;;;;5454757;26;20007;-48
2024/05/02 02:07:53;;;;;;;9.27;3.45;;;14.40;77.90;18.30;100173.00;;;;5459704;26;19999;-52
2024/05/02 02:10:20;;;;;;;6.28;3.22;;;14.40;78.00;18.30;100175.00;;;;5425696;26;20007;-49
2024/05/02 02:12:46;;;;;;;9.93;3.22;;;14.30;78.50;18.10;100167.00;;;;5437619;26;19998;-48
2024/05/02 02:15:15;;;;;;;12.18;3.65;;;14.30;78.80;18.40;100163.00;;;;5438678;26;20447;-48
2024/05/02 02:17:41;;;;;;;9.43;3.10;;;14.20;79.90;18.10;100161.00;;;;5444660;26;20010;-50
2024/05/02 02:20:08;;;;;;;5.63;2.97;;;14.30;79.10;18.30;100163.00;;;;5439218;26;20011;-49
2024/05/02 02:22:34;;;;;;;8.25;3.78;;;14.20;79.60;18.10;100168.00;;;;5449177;26;20030;-48
2024/05/02 02:25:02;;;;;;;9.63;3.20;;;14.20;80.10;18.00;100154.00;;;;5451385;26;20096;-48
2024/05/02 02:27:28;;;;;;;8.07;3.13;;;14.10;80.20;18.20;100159.00;;;;5449698;26;20022;-49
2024/05/02 02:29:54;;;;;;;10.80;3.97;;;14.10;80.50;18.10;100158.00;;;;5447657;26;19995;-54
2024/05/02 02:32:21;;;;;;;10.93;3.38;;;14.00;81.30;17.90;100160.00;;;;5440306;26;19999;-47
2024/05/02 02:34:47;;;;;;;8.38;3.42;;;14.00;81.70;17.80;100152.00;;;;5449317;26;19999;-48
2024/05/02 02:37:13;;;;;;;10.23;2.90;;;13.90;82.40;17.90;100147.00;;;;5439870;26;20015;-50
2024/05/02 02:39:39;;;;;;;7.80;3.33;;;13.80;82.40;17.50;100151.00;;;;5446782;26;20014;-48
2024/05/02 02:42:06;;;;;;;9.80;3.20;;;13.80;82.80;17.70;100154.00;;;;5439508;26;20002;-49
2024/05/02 02:44:32;;;;;;;6.47;2.92;;;13.80;83.00;17.80;100149.00;;;;5447218;26;19999;-52
2024/05/02 02:46:58;;;;;;;6.22;3.35;;;13.80;83.20;17.80;100158.00;;;;5438548;26;20000;-49
2024/05/02 02:49:24;;;;;;;5.40;2.72;;;13.80;84.10;17.20;100149.00;;;;5432403;26;20015;-50
2024/05/02 02:51:50;;;;;;;6.85;3.10;;;13.70;84.00;17.50;100148.00;;;;5448710;26;20385;-52
2024/05/02 02:54:16;;;;;;;6.20;2.88;;;13.70;84.80;17.60;100149.00;;;;5453824;26;20003;-49
2024/05/02 02:56:42;;;;;;;12.75;3.58;;;13.60;84.80;17.70;100151.00;;;;5444375;26;20394;-48
2024/05/02 02:59:09;;;;;;;7.28;3.45;;;13.60;85.30;17.70;100148.00;;;;5441047;26;20003;-62
2024/05/02 03:01:43;;;;;;;9.70;3.30;;;13.60;85.70;17.60;100151.00;;;;5458304;26;20333;-49
2024/05/02 03:04:14;;;;;;;10.77;3.35;;;13.60;86.40;17.50;100149.00;;;;5441313;26;20010;-50
2024/05/02 03:06:40;;;;;;;8.32;3.10;;;13.60;86.80;17.70;100147.00;;;;5445865;26;20003;-49
2024/05/02 03:09:06;;;;;;;14.10;3.28;;;13.50;87.70;17.30;100143.00;;;;5450752;26;19999;-49
2024/05/02 03:11:37;;;;;;;6.78;3.10;;;13.50;88.20;17.20;100147.00;;;;5443092;26;20003;-48
2024/05/02 03:14:03;;;;;;;8.30;3.17;;;13.40;88.80;17.30;100139.00;;;;5442302;26;20434;-49
2024/05/02 03:16:30;;;;;;;5.57;3.13;;;13.40;90.00;17.30;100145.00;;;;5449339;26;19999;-49
2024/05/02 03:18:56;;;;;;;11.20;3.38;;;13.40;90.00;17.40;100139.00;;;;5451386;26;20003;-49
2024/05/02 03:21:22;;;;;;;7.63;3.22;;;13.30;90.50;17.60;100147.00;;;;5441184;26;20020;-48
2024/05/02 03:23:50;;;;;;;7.07;2.88;;;13.30;90.70;17.50;100148.00;;;;5443297;26;20017;-48
2024/05/02 03:26:17;;;;;;;4.65;2.88;;;13.30;90.70;17.20;100145.00;;;;5454487;26;20045;-50
2024/05/02 03:28:43;;;;;;;8.40;2.92;;;13.30;90.80;17.40;100143.00;;;;5455996;26;20006;-55
2024/05/02 03:31:16;;;;;;;6.03;2.95;;;13.30;91.00;17.30;100145.00;;;;5445252;26;20003;-49
2024/05/02 03:33:44;;;;;;;9.63;2.75;;;13.30;91.20;17.00;100153.00;;;;5445218;26;20000;-50
2024/05/02 03:36:10;;;;;;;6.60;2.97;;;13.30;91.50;17.20;100147.00;;;;5444133;26;20432;-52
2024/05/02 03:38:36;;;;;;;8.73;3.00;;;13.30;91.20;17.20;100157.00;;;;5443838;26;20015;-49
2024/05/02 03:41:02;;;;;;;9.50;2.70;;;13.30;91.60;17.30;100147.00;;;;5446454;26;20007;-51
2024/05/02 03:43:28;;;;;;;6.18;2.80;;;13.30;91.90;17.00;100157.00;;;;5458281;26;20484;-54
2024/05/02 03:45:54;;;;;;;4.72;2.63;;;13.30;92.20;17.30;100151.00;;;;5447482;26;19999;-48
2024/05/02 03:48:21;;;;;;;6.97;3.05;;;13.30;92.00;17.30;100147.00;;;;5437528;26;19995;-49
2024/05/02 03:50:47;;;;;;;14.23;3.53;;;13.30;92.50;17.20;100155.00;;;;5438492;26;20105;-49
2024/05/02 03:53:14;;;;;;;11.15;2.78;;;13.30;92.40;17.20;100151.00;;;;5444711;26;19995;-50
2024/05/02 03:55:40;;;;;;;8.45;2.83;;;13.30;92.80;17.20;100155.00;;;;5455303;26;20082;-60
2024/05/02 03:58:06;;;;;;;8.20;2.80;;;13.30;93.00;17.20;100152.00;;;;5441715;26;20307;-49
2024/05/02 04:00:32;;;;;;;13.90;2.78;;;13.30;93.50;17.40;100148.00;;;;5439964;26;20000;-51
2024/05/02 04:02:58;;;;;;;9.90;2.92;;;13.30;93.80;17.50;100154.00;;;;5436853;26;20332;-47
2024/05/02 04:05:24;;;;;;;15.45;3.00;;;13.40;93.90;17.30;100156.00;;;;5468177;26;19999;-49
2024/05/02 04:07:51;;;;;;;11.40;2.60;;;13.40;93.70;17.30;100155.00;;;;5443598;26;20036;-49
2024/05/02 04:10:17;;;;;;;10.05;3.00;;;13.40;93.80;17.70;100151.00;;;;5442309;26;20342;-49
2024/05/02 04:12:43;;;;;;;7.40;3.25;;;13.40;94.00;17.40;100149.00;;;;5440135;26;20005;-47
2024/05/02 04:15:09;;;;;;;3.67;2.33;;;13.50;93.80;17.30;100149.00;;;;5445022;26;20008;-48
2024/05/02 04:17:35;;;;;;;12.20;3.00;;;13.50;93.80;17.60;100147.00;;;;5431336;26;20024;-48
2024/05/02 04:20:01;;;;;;;12.65;3.00;;;13.50;94.00;17.60;100152.00;;;;5442996;26;19999;-49
2024/05/02 04:22:28;;;;;;;9.32;3.10;;;13.60;93.80;17.30;100145.00;;;;5467579;26;20049;-49
2024/05/02 04:24:54;;;;;;;7.45;2.67;;;13.60;93.80;17.70;100147.00;;;;5436293;26;20022;-49
2024/05/02 04:27:19;;;;;;;7.53;3.63;;;13.70;94.20;17.70;100155.00;;;;5444379;26;20345;-49
2024/05/02 04:29:46;;;;;;;7.78;3.42;;;13.70;93.90;17.60;100153.00;;;;5444266;26;20010;-50
2024/05/02 04:32:12;;;;;;;7.82;2.72;;;13.70;93.90;17.80;100152.00;;;;5438474;26;20014;-49
2024/05/02 04:34:38;;;;;;;5.63;2.42;;;13.80;94.10;17.80;100151.00;;;;5447020;26;20015;-48
2024/05/02 04:37:04;;;;;;;10.20;2.85;;;13.90;94.10;18.00;100155.00;;;;5447392;26;20000;-49
2024/05/02 04:39:30;;;;;;;5.97;3.03;;;13.90;93.80;17.80;100148.00;;;;5438850;26;19999;-54
2024/05/02 04:41:56;;;;;;;8.07;3.38;;;14.00;93.70;17.90;100159.00;;;;5442519;26;20003;-48
2024/05/02 04:44:22;;;;;;;9.20;3.00;;;14.00;93.60;18.20;100157.00;;;;5435282;26;19996;-48
2024/05/02 04:46:49;;;;;;;7.43;3.13;;;14.10;93.40;18.10;100154.00;;;;5426689;26;20000;-48
2024/05/02 04:49:15;;;;;;;9.32;2.70;;;14.20;93.70;18.00;100152.00;;;;5440640;26;20010;-49
2024/05/02 04:51:41;;;;;;;9.57;2.97;;;14.20;93.10;18.00;100148.00;;;;5435233;26;20046;-48
2024/05/02 04:54:07;;;;;;;9.55;3.42;;;14.20;93.20;18.20;100156.00;;;;5435790;26;20437;-55
2024/05/02 04:56:33;;;;;;;9.40;2.90;;;14.30;93.40;18.30;100160.00;;;;5445710;26;20048;-50
2024/05/02 04:59:00;;;;;;;12.38;3.28;;;14.30;93.30;18.50;100145.00;;;;5447586;26;20003;-49
2024/05/02 05:01:26;;;;;;;7.75;2.67;;;14.40;93.00;18.70;100149.00;;;;5443618;26;19995;-50
2024/05/02 05:03:52;;;;;;;10.25;3.40;;;14.50;93.30;18.60;100147.00;;;;5444018;26;20079;-49
2024/05/02 05:06:18;;;;;;;10.85;3.42;;;14.60;92.90;18.80;100149.00;;;;5434517;26;19999;-48
2024/05/02 05:08:44;;;;;;;6.82;3.42;;;14.70;92.80;18.90;100141.00;;;;5432145;26;20440;-49
2024/05/02 05:11:11;;;;;;;8.40;2.95;;;14.70;93.10;18.60;100144.00;;;;5443016;26;20003;-49
2024/05/02 05:13:37;;;;;;;11.63;3.38;;;14.90;92.10;18.40;100143.00;;;;5438962;26;20082;-49
2024/05/02 05:16:03;;;;;;;7.30;3.38;;;14.90;92.00;18.60;100141.00;;;;5439665;26;20421;-52
2024/05/02 05:18:29;;;;;;;7.43;2.70;;;14.90;91.70;18.70;100139.00;;;;5431745;26;20039;-57
2024/05/02 05:20:56;;;;;;;10.20;3.17;;;15.00;91.50;18.90;100139.00;;;;5437523;26;20006;-48
2024/05/02 05:23:22;;;;;;;10.02;3.30;;;15.00;91.60;18.90;100129.00;;;;5437460;26;20057;-48
2024/05/02 05:25:48;;;;;;;5.18;2.83;;;15.10;91.70;18.90;100135.00;;;;5437875;26;20135;-47
2024/05/02 05:28:15;;;;;;;6.65;3.10;;;15.10;91.30;19.00;100146.00;;;;5435271;26;20003;-49
2024/05/02 05:30:41;;;;;;;5.85;3.38;;;15.20;91.30;18.90;100137.00;;;;5428691;26;20018;-48
2024/05/02 05:33:07;;;;;;;9.98;2.47;;;15.30;91.50;19.20;100135.00;;;;5440594;26;20010;-57
2024/05/02 05:35:33;;;;;;;12.15;3.47;;;15.40;91.40;19.10;100139.00;;;;5442921;26;19999;-50
2024/05/02 05:37:59;;;;;;;7.95;3.25;;;15.40;91.20;19.10;100128.00;;;;5449980;26;20049;-50
2024/05/02 05:40:25;;;;;;;5.30;2.80;;;15.50;91.10;19.20;100140.00;;;;5442206;26;20067;-49
2024/05/02 05:42:52;;;;;;;9.75;3.17;;;15.60;90.90;19.60;100137.00;;;;5445241;26;20017;-48
2024/05/02 05:45:18;;;;;;;10.02;3.10;;;15.60;91.10;19.60;100141.00;;;;5453904;26;20031;-48
2024/05/02 05:47:44;;;;;;;6.43;3.08;;;15.70;90.80;19.70;100138.00;;;;5448222;26;20329;-49
2024/05/02 05:50:10;;;;;;;9.90;3.03;;;15.80;90.90;19.80;100139.00;;;;5436483;26;20102;-49
2024/05/02 05:52:37;;;;;;;10.18;3.22;;;15.90;90.70;19.70;100144.00;;;;5436086;26;20065;-49
2024/05/02 05:55:05;;;;;;;6.80;2.80;;;16.00;90.90;20.10;100139.00;;;;5446853;26;19996;-50
2024/05/02 05:57:31;;;;;;;9.80;3.10;;;16.10;90.80;19.90;100133.00;;;;5438226;26;19999;-50
2024/05/02 05:59:57;;;;;;;10.45;3.50;;;16.20;90.60;19.90;100130.00;;;;5431683;26;20002;-52
2024/05/02 06:02:23;;;;;;;14.27;3.20;;;16.20;90.50;20.30;100128.00;;;;5440968;26;20014;-48
2024/05/02 06:04:49;;;;;;;9.57;3.08;;;16.40;90.70;20.20;100129.00;;;;5432145;26;19999;-50
2024/05/02 06:07:20;;;;;;;9.43;2.97;;;16.50;90.40;20.10;100128.00;;;;5437437;26;19999;-48
2024/05/02 06:09:47;;;;;;;10.80;2.83;;;16.60;90.20;20.60;100125.00;;;;5415504;26;19999;-48
2024/05/02 06:12:13;;;;;;;10.55;3.30;;;16.70;90.20;20.40;100126.00;;;;5451052;26;19998;-47
2024/05/02 06:14:39;;;;;;;10.68;2.42;;;16.70;90.00;20.90;100127.00;;;;5444131;26;20355;-51
2024/05/02 06:17:06;;;;;;;8.18;2.50;;;16.90;90.20;20.90;100122.00;;;;5446786;26;19999;-48
2024/05/02 06:19:32;;;;;;;12.98;3.00;;;17.00;90.10;21.00;100119.00;;;;5458815;26;20003;-49
2024/05/02 06:22:01;;;;;;;11.88;3.08;;;17.20;90.00;20.80;100126.00;;;;5437965;26;20004;-48
2024/05/02 06:24:27;;;;;;;9.30;2.70;;;17.20;88.10;21.00;100121.00;;;;5436690;26;20006;-48
2024/05/02 06:26:53;;;;;;;6.50;2.88;;;17.30;87.80;20.90;100129.00;;;;5440529;26;20075;-48
2024/05/02 06:29:20;;;;;;;13.32;3.17;;;17.30;87.40;21.40;100129.00;;;;5426554;26;20076;-49
2024/05/02 06:31:47;;;;;;;8.93;3.20;;;17.40;88.40;21.20;100125.00;;;;5437913;26;20027;-49
2024/05/02 06:34:13;;;;;;;5.68;2.97;;;17.50;87.60;21.20;100116.00;;;;5433040;26;20343;-48
2024/05/02 06:36:43;;;;;;;8.02;3.38;;;17.60;87.60;21.20;100117.00;;;;5397152;26;1084936;-54
2024/05/02 06:39:12;;;;;;;12.27;3.20;;;17.70;86.90;21.60;100119.00;;;;5438659;26;20026;-49
2024/05/02 06:41:39;;;;;;;8.65;3.05;;;17.80;86.30;21.50;100119.00;;;;5448184;26;20401;-49
2024/05/02 06:44:06;;;;;;;7.18;3.00;;;18.00;85.60;21.50;100121.00;;;;5442402;26;20002;-48
2024/05/02 06:46:32;;;;;;;8.63;3.03;;;18.00;85.20;21.70;100110.00;;;;5443131;26;20079;-48
2024/05/02 06:48:58;;;;;;;9.52;3.47;;;18.20;84.50;22.20;100119.00;;;;5436032;26;20012;-49
2024/05/02 06:51:24;;;;;;;6.68;2.80;;;18.40;84.50;22.40;100109.00;;;;5435453;26;20441;-50
2024/05/02 06:53:50;;;;;;;6.78;2.75;;;18.60;84.60;22.50;100119.00;;;;5433774;26;20306;-49
2024/05/02 06:56:16;;;;;;;9.05;2.80;;;18.80;83.90;22.80;100114.00;;;;5446921;26;20019;-48
2024/05/02 06:58:43;;;;;;;6.95;3.28;;;18.90;84.80;22.70;100114.00;;;;5451184;26;20014;-50
2024/05/02 07:01:09;;;;;;;8.93;3.30;;;19.10;83.10;22.50;100105.00;;;;5445155;26;20175;-47
2024/05/02 07:03:35;;;;;;;8.05;2.80;;;19.10;81.70;22.90;100105.00;;;;5434519;26;20003;-51
2024/05/02 07:06:02;;;;;;;7.85;3.00;;;19.20;81.30;23.00;100102.00;;;;5451705;26;20021;-51
2024/05/02 07:08:28;;;;;;;4.43;2.78;;;19.30;81.00;23.30;100099.00;;;;5444328;26;20007;-48
2024/05/02 07:10:54;;;;;;;6.88;2.95;;;19.50;80.60;23.40;100096.00;;;;5441658;26;20033;-50
2024/05/02 07:13:20;;;;;;;13.20;2.97;;;19.60;80.30;23.50;100094.00;;;;5458951;26;20143;-48
2024/05/02 07:15:47;;;;;;;7.47;2.65;;;19.80;79.80;23.10;100094.00;;;;5457626;26;20014;-49
2024/05/02 07:18:13;;;;;;;7.05;2.63;;;19.80;79.00;23.30;100099.00;;;;5463882;26;19998;-48
2024/05/02 07:20:40;;;;;;;8.15;2.70;;;19.80;78.60;23.50;100093.00;;;;5425009;26;20003;-50
2024/05/02 07:23:07;;;;;;;7.75;2.70;;;19.70;78.80;23.40;100093.00;;;;5439752;26;20010;-49
2024/05/02 07:25:33;;;;;;;11.45;3.10;;;19.70;78.90;23.70;100099.00;;;;5430163;26;20015;-50
2024/05/02 07:28:00;;;;;;;12.15;2.88;;;19.90;78.60;23.90;100104.00;;;;5436603;26;20004;-49
2024/05/02 07:30:26;;;;;;;8.82;3.10;;;20.10;78.30;24.10;100106.00;;;;5442978;26;20384;-53
2024/05/02 07:32:54;;;;;;;11.48;3.38;;;20.40;77.60;24.60;100104.00;;;;5432426;26;20010;-49
2024/05/02 07:35:22;;;;;;;7.10;2.88;;;20.70;77.80;24.40;100102.00;;;;5438246;26;20446;-49
2024/05/02 07:37:48;;;;;;;9.63;2.55;;;20.80;76.00;24.80;100101.00;;;;5437937;26;20035;-49
2024/05/02 07:40:14;;;;;;;7.38;2.42;;;21.10;75.90;24.60;100090.00;;;;5461505;26;20114;-50
2024/05/02 07:42:40;;;;;;;13.82;2.85;;;21.10;74.80;24.60;100092.00;;;;5456840;26;20021;-48
2024/05/02 07:45:07;;;;;;;8.30;2.20;;;21.20;74.80;24.50;100097.00;;;;5444299;26;20419;-48
2024/05/02 07:47:33;;;;;;;10.38;2.90;;;21.40;72.90;24.90;100093.00;;;;5433581;26;20006;-47
2024/05/02 07:49:59;;;;;;;7.40;2.60;;;21.50;73.20;24.70;100089.00;;;;5441783;26;20394;-49
2024/05/02 07:52:25;;;;;;;7.57;2.92;;;21.50;72.90;24.80;100090.00;;;;5437145;26;19998;-50
2024/05/02 07:54:51;;;;;;;10.05;2.85;;;21.50;73.60;24.90;100083.00;;;;5434449;26;20014;-50
2024/05/02 07:57:17;;;;;;;6.03;2.38;;;21.60;73.70;25.20;100088.00;;;;5426598;26;19999;-49
2024/05/02 07:59:43;;;;;;;6.68;2.58;;;21.80;72.40;25.40;100083.00;;;;5428972;26;20014;-49
2024/05/02 08:02:10;;;;;;;6.50;2.42;;;22.00;71.50;25.80;100070.00;;;;5436120;26;20082;-51
2024/05/02 08:04:36;;;;;;;11.98;2.85;;;22.20;71.40;26.10;100064.00;;;;5424876;26;19996;-51
2024/05/02 08:07:02;;;;;;;8.48;3.13;;;22.50;71.80;26.50;100062.00;;;;5425769;26;20065;-50
2024/05/02 08:09:29;;;;;;;17.27;3.47;;;22.80;71.80;26.70;100063.00;;;;5433736;26;20003;-48
2024/05/02 08:11:55;;;;;;;8.43;3.50;;;23.10;71.90;26.50;100063.00;;;;5432214;26;19999;-49
2024/05/02 08:14:21;;;;;;;11.98;2.83;;;23.00;71.20;26.60;100067.00;;;;5441476;26;20101;-50
2024/05/02 08:16:47;;;;;;;13.02;2.88;;;23.10;70.50;26.80;100060.00;;;;5437236;26;20015;-50
2024/05/02 08:19:13;;;;;;;7.07;3.55;;;23.30;69.90;26.90;100062.00;;;;5451006;26;20002;-52
2024/05/02 08:21:39;;;;;;;18.52;2.95;;;23.30;69.50;26.70;100056.00;;;;5444602;26;21099;-49
2024/05/02 08:24:05;;;;;;;9.13;3.38;;;23.20;70.20;26.70;100058.00;;;;5453677;26;20021;-49
2024/05/02 08:26:31;;;;;;;8.02;2.80;;;23.10;71.10;26.90;100055.00;;;;5448318;26;21768;-48
2024/05/02 08:28:57;;;;;;;12.38;3.28;;;23.00;70.70;27.40;100057.00;;;;5438271;26;20105;-48
2024/05/02 08:31:24;;;;;;;9.13;2.88;;;23.30;71.10;27.80;100050.00;;;;5433537;26;20007;-49
2024/05/02 08:33:50;;;;;;;12.57;3.10;;;23.80;70.10;28.30;100044.00;;;;5436698;26;20278;-49
2024/05/02 08:36:19;;;;;;;7.90;2.95;;;24.30;68.70;28.60;100051.00;;;;5432477;26;20410;-49
2024/05/02 08:38:46;;;;;;;9.75;3.10;;;24.60;67.20;28.50;100059.00;;;;5440279;26;20267;-49
2024/05/02 08:41:14;;;;;;;5.93;2.58;;;24.70;67.00;28.50;100058.00;;;;5437107;26;20410;-51
2024/05/02 08:43:45;;;;;;;12.00;2.42;;;24.90;67.00;28.50;100051.00;;;;5402936;26;20007;-57
2024/05/02 08:46:14;;;;;;;10.73;2.90;;;24.70;66.00;28.70;100045.00;;;;5440718;26;20588;-60
2024/05/02 08:48:45;;;;;;;5.88;3.15;;;25.00;65.60;28.40;100051.00;;;;5438779;26;20030;-53
2024/05/02 08:51:13;;;;;;;10.15;2.70;;;24.80;65.10;28.30;100046.00;;;;5444246;26;20011;-49
2024/05/02 08:53:39;;;;;;;12.80;2.90;;;24.90;65.30;28.50;100047.00;;;;5434443;26;20038;-49
2024/05/02 08:56:07;;;;;;;12.20;2.70;;;25.00;65.10;28.50;100048.00;;;;5442690;26;20006;-48
2024/05/02 08:58:42;;;;;;;5.15;2.75;;;25.10;64.50;28.70;100036.00;;;;5450561;26;20078;-48
2024/05/02 09:01:10;;;;;;;10.70;2.60;;;25.30;65.10;29.10;100042.00;;;;5492517;26;20001;-48
2024/05/02 09:03:37;;;;;;;5.85;2.40;;;25.60;63.40;29.00;100032.00;;;;5473544;26;19999;-49
2024/05/02 09:06:05;;;;;;;8.75;2.22;;;25.60;63.50;29.40;100029.00;;;;5456468;26;20003;-49
2024/05/02 09:08:35;;;;;;;5.43;2.40;;;25.80;62.70;29.40;100024.00;;;;5445715;26;20093;-49
2024/05/02 09:11:03;;;;;;;8.57;3.05;;;26.00;61.90;30.00;100037.00;;;;5437560;26;20007;-56
2024/05/02 09:13:29;;;;;;;8.00;2.33;;;26.40;62.00;30.20;100031.00;;;;5438438;26;20077;-49
2024/05/02 09:15:55;;;;;;;4.53;2.20;;;26.70;61.20;30.00;100035.00;;;;5438909;26;20015;-56
2024/05/02 09:18:21;;;;;;;9.23;2.53;;;26.70;61.00;30.40;100029.00;;;;5429484;26;20011;-49
2024/05/02 09:21:01;;;;;;;6.22;2.72;;;26.60;60.70;30.40;100034.00;;;;5434235;26;20009;-51
2024/05/02 09:23:27;;;;;;;7.93;2.13;;;26.50;61.80;29.90;100032.00;;;;5441766;26;20015;-50
2024/05/02 09:25:53;;;;;;;8.25;2.55;;;26.20;60.80;29.90;100036.00;;;;5442519;26;19999;-50
2024/05/02 09:28:23;;;;;;;7.25;2.40;;;25.90;61.60;29.10;100033.00;;;;5429849;26;20018;-49
2024/05/02 09:30:50;;;;;;;8.00;2.95;;;25.50;60.20;28.60;100038.00;;;;5434151;26;20000;-48
2024/05/02 09:33:16;;;;;;;14.15;2.90;;;25.20;60.90;28.10;100035.00;;;;5438995;26;20312;-49
2024/05/02 09:35:42;;;;;;;5.15;2.40;;;24.90;61.30;27.90;100032.00;;;;5439763;26;19999;-49
2024/05/02 09:38:10;;;;;;;9.73;2.65;;;24.90;61.80;29.40;100036.00;;;;5462170;26;19998;-51
2024/05/02 09:40:44;;;;;;;8.77;2.33;;;25.70;61.30;29.40;100035.00;;;;5463783;26;20019;-50
2024/05/02 09:43:18;;;;;;;9.02;2.33;;;26.30;60.40;30.00;100025.00;;;;5466025;26;19999;-53
2024/05/02 09:45:55;;;;;;;6.80;2.15;;;26.50;59.70;30.60;100025.00;;;;5466522;26;20424;-50
2024/05/02 09:48:28;;;;;;;12.15;2.25;;;26.70;59.10;29.80;100025.00;;;;5464899;26;19999;-51
2024/05/02 09:51:11;;;;;;;9.30;2.05;;;27.20;58.00;31.60;100014.00;;;;5465103;26;20087;-52
2024/05/02 09:53:38;;;;;;;8.93;2.47;;;27.60;59.10;32.40;100013.00;;;;5466122;26;19999;-50
2024/05/02 09:56:07;;;;;;;11.65;2.30;;;28.10;59.80;32.80;100012.00;;;;5461107;26;19995;-49
2024/05/02 09:58:35;;;;;;;7.63;2.38;;;28.90;58.20;33.70;100006.00;;;;5462571;26;20017;-52
2024/05/02 10:01:01;;;;;;;6.45;2.10;;;29.40;57.20;34.20;100011.00;;;;5463289;26;19995;-51
2024/05/02 10:03:28;;;;;;;8.40;2.15;;;30.00;56.50;34.20;100000.00;;;;5456070;26;20019;-50
2024/05/02 10:05:57;;;;;;;12.43;2.47;;;30.30;55.80;34.40;100003.00;;;;5458267;26;20034;-50
2024/05/02 10:08:35;;;;;;;7.05;1.70;;;30.40;54.70;34.50;100004.00;;;;5457873;26;19995;-49
2024/05/02 10:11:07;;;;;;;6.18;2.05;;;30.70;53.80;35.30;100011.00;;;;5456188;26;20320;-48
2024/05/02 10:13:36;;;;;;;8.98;1.98;;;31.40;52.50;35.20;100005.00;;;;5457078;26;20451;-48
2024/05/02 10:16:11;;;;;;;5.65;2.10;;;31.40;51.50;34.30;100008.00;;;;5457372;26;20417;-55
2024/05/02 10:18:49;;;;;;;4.30;1.92;;;30.60;52.00;33.90;100011.00;;;;5456182;26;20432;-61
2024/05/02 10:21:28;;;;;;;10.10;2.28;;;30.10;52.20;33.10;99999.00;;;;5456578;26;20006;-49
2024/05/02 10:23:55;;;;;;;10.15;2.13;;;29.20;53.20;33.40;100005.00;;;;5457798;26;20067;-49
2024/05/02 10:26:35;;;;;;;6.22;2.45;;;29.60;53.40;32.90;99998.00;;;;5456621;26;19999;-49
2024/05/02 10:29:04;;;;;;;4.72;2.05;;;29.40;51.70;33.00;99996.00;;;;5456404;26;20313;-48
2024/05/02 10:31:31;;;;;;;4.65;1.98;;;29.60;52.30;34.00;100007.00;;;;5457987;26;20289;-50
2024/05/02 10:34:03;;;;;;;9.82;2.13;;;30.00;52.40;34.30;99985.00;;;;5457679;26;19995;-49
2024/05/02 10:36:30;;;;;;;12.45;2.13;;;30.50;52.10;34.90;99994.00;;;;5456833;26;20320;-50
2024/05/02 10:38:57;;;;;;;4.38;1.92;;;31.00;51.80;34.40;99994.00;;;;5456994;26;19999;-48
2024/05/02 10:41:25;;;;;;;7.70;1.95;;;30.90;49.90;34.80;99991.00;;;;5456602;26;20006;-48
2024/05/02 10:43:52;;;;;;;5.07;1.50;;;31.00;50.80;34.80;99988.00;;;;5456716;26;20007;-49